Metar Flugplatz Niederstetten

ETHN 062220Z 23013KT 9999 -RA OVC025 05/01 Q1011 BLU



Temperatur Niederstetten
5 Grad Celsius

QNH Niederstetten
1011
==============================================================

TAF Niederstetten:

TAF ETHN 291027Z 2911/3002 24010KT 9999 NSW FEW240 TEMPO 2911/2916 26012G22KT 9999 NSW SCT035 BKN240



Alle Angaben ohne Gewähr